sensor_id;sensor_type;location;lat;lon;timestamp;P1;durP1;ratioP1;P2;durP2;ratioP2
2175;SDS011;1094;49.902;10.876;2022-11-18T00:01:34;18.27;;;13.00;;
2175;SDS011;1094;49.902;10.876;2022-11-18T00:04:00;15.37;;;12.50;;
2175;SDS011;1094;49.902;10.876;2022-11-18T00:06:27;15.87;;;12.63;;
2175;SDS011;1094;49.902;10.876;2022-11-18T00:08:53;15.10;;;12.33;;
2175;SDS011;1094;49.902;10.876;2022-11-18T00:11:21;17.37;;;12.80;;
2175;SDS011;1094;49.902;10.876;2022-11-18T00:14:10;18.50;;;13.37;;
2175;SDS011;1094;49.902;10.876;2022-11-18T00:16:52;17.40;;;12.50;;
2175;SDS011;1094;49.902;10.876;2022-11-18T00:19:23;15.20;;;13.17;;
2175;SDS011;1094;49.902;10.876;2022-11-18T00:21:49;19.63;;;13.70;;
2175;SDS011;1094;49.902;10.876;2022-11-18T00:24:15;18.83;;;13.13;;
2175;SDS011;1094;49.902;10.876;2022-11-18T00:26:41;15.20;;;11.70;;
2175;SDS011;1094;49.902;10.876;2022-11-18T00:29:08;19.40;;;13.73;;
2175;SDS011;1094;49.902;10.876;2022-11-18T00:31:35;15.80;;;12.63;;
2175;SDS011;1094;49.902;10.876;2022-11-18T00:34:00;20.70;;;14.87;;
2175;SDS011;1094;49.902;10.876;2022-11-18T00:36:27;18.07;;;13.67;;
2175;SDS011;1094;49.902;10.876;2022-11-18T00:38:53;19.80;;;13.03;;
2175;SDS011;1094;49.902;10.876;2022-11-18T00:41:19;20.43;;;12.73;;
2175;SDS011;1094;49.902;10.876;2022-11-18T00:43:45;18.20;;;13.30;;
2175;SDS011;1094;49.902;10.876;2022-11-18T00:46:11;18.23;;;12.93;;
2175;SDS011;1094;49.902;10.876;2022-11-18T00:48:37;15.60;;;13.50;;
2175;SDS011;1094;49.902;10.876;2022-11-18T00:51:14;15.60;;;13.10;;
2175;SDS011;1094;49.902;10.876;2022-11-18T00:53:40;19.27;;;12.57;;
2175;SDS011;1094;49.902;10.876;2022-11-18T00:56:07;20.03;;;13.67;;
2175;SDS011;1094;49.902;10.876;2022-11-18T00:58:33;20.63;;;14.80;;
2175;SDS011;1094;49.902;10.876;2022-11-18T01:00:59;16.47;;;13.00;;
2175;SDS011;1094;49.902;10.876;2022-11-18T01:03:26;18.03;;;13.83;;
2175;SDS011;1094;49.902;10.876;2022-11-18T01:05:52;17.23;;;13.67;;
2175;SDS011;1094;49.902;10.876;2022-11-18T01:08:18;17.90;;;12.80;;
2175;SDS011;1094;49.902;10.876;2022-11-18T01:10:45;16.33;;;13.00;;
2175;SDS011;1094;49.902;10.876;2022-11-18T01:13:12;18.73;;;13.73;;
2175;SDS011;1094;49.902;10.876;2022-11-18T01:15:46;18.33;;;13.30;;
2175;SDS011;1094;49.902;10.876;2022-11-18T01:18:12;16.60;;;13.50;;
2175;SDS011;1094;49.902;10.876;2022-11-18T01:20:38;20.50;;;13.87;;
2175;SDS011;1094;49.902;10.876;2022-11-18T01:23:04;20.27;;;14.60;;
2175;SDS011;1094;49.902;10.876;2022-11-18T01:25:30;17.73;;;14.00;;
2175;SDS011;1094;49.902;10.876;2022-11-18T01:27:56;29.83;;;15.20;;
2175;SDS011;1094;49.902;10.876;2022-11-18T01:30:22;27.53;;;15.63;;
2175;SDS011;1094;49.902;10.876;2022-11-18T01:32:48;16.47;;;13.20;;
2175;SDS011;1094;49.902;10.876;2022-11-18T01:35:14;15.67;;;12.93;;
2175;SDS011;1094;49.902;10.876;2022-11-18T01:37:40;18.73;;;13.47;;
2175;SDS011;1094;49.902;10.876;2022-11-18T01:40:06;19.13;;;13.13;;
2175;SDS011;1094;49.902;10.876;2022-11-18T01:42:33;19.00;;;13.23;;
2175;SDS011;1094;49.902;10.876;2022-11-18T01:47:26;16.10;;;13.70;;
2175;SDS011;1094;49.902;10.876;2022-11-18T01:49:53;20.83;;;14.60;;
2175;SDS011;1094;49.902;10.876;2022-11-18T01:52:19;18.53;;;12.20;;
2175;SDS011;1094;49.902;10.876;2022-11-18T01:54:47;15.57;;;13.90;;
2175;SDS011;1094;49.902;10.876;2022-11-18T01:57:16;16.27;;;12.47;;
2175;SDS011;1094;49.902;10.876;2022-11-18T01:59:45;23.17;;;14.17;;
2175;SDS011;1094;49.902;10.876;2022-11-18T02:02:13;21.23;;;14.27;;
2175;SDS011;1094;49.902;10.876;2022-11-18T02:04:41;19.70;;;15.47;;
2175;SDS011;1094;49.902;10.876;2022-11-18T02:07:07;17.90;;;14.40;;
2175;SDS011;1094;49.902;10.876;2022-11-18T02:09:34;19.63;;;12.03;;
2175;SDS011;1094;49.902;10.876;2022-11-18T02:12:01;17.73;;;14.07;;
2175;SDS011;1094;49.902;10.876;2022-11-18T02:14:37;17.90;;;13.73;;
2175;SDS011;1094;49.902;10.876;2022-11-18T02:17:11;21.30;;;14.43;;
2175;SDS011;1094;49.902;10.876;2022-11-18T02:24:58;18.90;;;13.70;;
2175;SDS011;1094;49.902;10.876;2022-11-18T02:32:32;17.77;;;14.20;;
2175;SDS011;1094;49.902;10.876;2022-11-18T02:42:44;18.63;;;14.60;;
2175;SDS011;1094;49.902;10.876;2022-11-18T02:45:14;17.77;;;12.87;;
2175;SDS011;1094;49.902;10.876;2022-11-18T02:47:41;21.83;;;14.57;;
2175;SDS011;1094;49.902;10.876;2022-11-18T02:50:09;21.73;;;14.90;;
2175;SDS011;1094;49.902;10.876;2022-11-18T02:52:36;24.27;;;15.07;;
2175;SDS011;1094;49.902;10.876;2022-11-18T02:55:04;20.47;;;14.20;;
2175;SDS011;1094;49.902;10.876;2022-11-18T02:57:31;22.83;;;16.00;;
2175;SDS011;1094;49.902;10.876;2022-11-18T02:59:58;19.43;;;14.90;;
2175;SDS011;1094;49.902;10.876;2022-11-18T03:02:24;18.67;;;14.80;;
2175;SDS011;1094;49.902;10.876;2022-11-18T03:04:50;20.73;;;16.00;;
2175;SDS011;1094;49.902;10.876;2022-11-18T03:09:45;20.23;;;14.80;;
2175;SDS011;1094;49.902;10.876;2022-11-18T03:22:32;19.87;;;13.17;;
2175;SDS011;1094;49.902;10.876;2022-11-18T03:27:35;17.70;;;15.80;;
2175;SDS011;1094;49.902;10.876;2022-11-18T03:30:05;23.03;;;13.43;;
2175;SDS011;1094;49.902;10.876;2022-11-18T03:32:32;16.90;;;13.00;;
2175;SDS011;1094;49.902;10.876;2022-11-18T03:35:02;16.77;;;12.43;;
2175;SDS011;1094;49.902;10.876;2022-11-18T03:37:29;16.40;;;12.07;;
2175;SDS011;1094;49.902;10.876;2022-11-18T03:39:58;18.13;;;13.40;;
2175;SDS011;1094;49.902;10.876;2022-11-18T03:42:28;20.70;;;13.53;;
2175;SDS011;1094;49.902;10.876;2022-11-18T03:44:58;18.43;;;12.90;;
2175;SDS011;1094;49.902;10.876;2022-11-18T03:47:27;18.23;;;13.77;;
2175;SDS011;1094;49.902;10.876;2022-11-18T03:49:56;20.37;;;14.50;;
2175;SDS011;1094;49.902;10.876;2022-11-18T03:52:25;19.73;;;13.73;;
2175;SDS011;1094;49.902;10.876;2022-11-18T03:54:53;19.00;;;14.30;;
2175;SDS011;1094;49.902;10.876;2022-11-18T03:57:21;20.97;;;14.63;;
2175;SDS011;1094;49.902;10.876;2022-11-18T03:59:57;23.30;;;14.37;;
2175;SDS011;1094;49.902;10.876;2022-11-18T04:02:24;22.60;;;13.73;;
2175;SDS011;1094;49.902;10.876;2022-11-18T04:04:51;16.73;;;12.07;;
2175;SDS011;1094;49.902;10.876;2022-11-18T04:09:56;19.70;;;13.00;;
2175;SDS011;1094;49.902;10.876;2022-11-18T04:12:24;15.90;;;12.23;;
2175;SDS011;1094;49.902;10.876;2022-11-18T04:14:52;15.37;;;13.33;;
2175;SDS011;1094;49.902;10.876;2022-11-18T04:17:20;18.00;;;13.27;;
2175;SDS011;1094;49.902;10.876;2022-11-18T04:19:46;19.17;;;11.97;;
2175;SDS011;1094;49.902;10.876;2022-11-18T04:22:12;16.10;;;12.33;;
2175;SDS011;1094;49.902;10.876;2022-11-18T04:24:38;17.57;;;13.23;;
2175;SDS011;1094;49.902;10.876;2022-11-18T04:27:05;18.10;;;12.40;;
2175;SDS011;1094;49.902;10.876;2022-11-18T04:29:31;18.07;;;12.03;;
2175;SDS011;1094;49.902;10.876;2022-11-18T04:31:58;23.30;;;12.40;;
2175;SDS011;1094;49.902;10.876;2022-11-18T04:34:24;16.10;;;11.90;;
2175;SDS011;1094;49.902;10.876;2022-11-18T04:36:50;18.73;;;13.00;;
2175;SDS011;1094;49.902;10.876;2022-11-18T04:39:16;14.17;;;10.87;;
2175;SDS011;1094;49.902;10.876;2022-11-18T04:41:42;16.00;;;11.10;;
2175;SDS011;1094;49.902;10.876;2022-11-18T04:44:27;22.70;;;13.17;;
2175;SDS011;1094;49.902;10.876;2022-11-18T04:46:54;15.30;;;12.60;;
2175;SDS011;1094;49.902;10.876;2022-11-18T04:49:20;15.17;;;11.93;;
2175;SDS011;1094;49.902;10.876;2022-11-18T04:51:46;16.37;;;12.00;;
2175;SDS011;1094;49.902;10.876;2022-11-18T04:54:12;19.90;;;13.07;;
2175;SDS011;1094;49.902;10.876;2022-11-18T04:56:39;16.97;;;12.10;;
2175;SDS011;1094;49.902;10.876;2022-11-18T04:59:05;13.13;;;10.93;;
2175;SDS011;1094;49.902;10.876;2022-11-18T05:01:31;17.03;;;12.07;;
2175;SDS011;1094;49.902;10.876;2022-11-18T05:03:58;15.87;;;11.70;;
2175;SDS011;1094;49.902;10.876;2022-11-18T05:06:25;15.13;;;11.73;;
2175;SDS011;1094;49.902;10.876;2022-11-18T05:08:51;17.87;;;12.43;;
2175;SDS011;1094;49.902;10.876;2022-11-18T05:11:17;20.40;;;12.10;;
2175;SDS011;1094;49.902;10.876;2022-11-18T05:14:01;15.70;;;12.10;;
2175;SDS011;1094;49.902;10.876;2022-11-18T05:16:27;18.70;;;12.73;;
2175;SDS011;1094;49.902;10.876;2022-11-18T05:18:53;20.63;;;13.67;;
2175;SDS011;1094;49.902;10.876;2022-11-18T05:21:19;24.13;;;13.53;;
2175;SDS011;1094;49.902;10.876;2022-11-18T05:23:45;20.47;;;13.30;;
2175;SDS011;1094;49.902;10.876;2022-11-18T05:26:11;18.93;;;11.77;;
2175;SDS011;1094;49.902;10.876;2022-11-18T05:28:37;19.97;;;13.73;;
2175;SDS011;1094;49.902;10.876;2022-11-18T05:31:07;19.67;;;12.50;;
2175;SDS011;1094;49.902;10.876;2022-11-18T05:33:33;17.97;;;14.10;;
2175;SDS011;1094;49.902;10.876;2022-11-18T05:36:03;20.90;;;12.80;;
2175;SDS011;1094;49.902;10.876;2022-11-18T05:38:30;23.20;;;15.13;;
2175;SDS011;1094;49.902;10.876;2022-11-18T05:40:56;20.43;;;13.97;;
2175;SDS011;1094;49.902;10.876;2022-11-18T05:43:22;20.07;;;13.73;;
2175;SDS011;1094;49.902;10.876;2022-11-18T05:45:49;19.33;;;14.40;;
2175;SDS011;1094;49.902;10.876;2022-11-18T05:48:15;18.27;;;13.10;;
2175;SDS011;1094;49.902;10.876;2022-11-18T05:50:41;17.20;;;11.87;;
2175;SDS011;1094;49.902;10.876;2022-11-18T05:53:07;19.13;;;12.57;;
2175;SDS011;1094;49.902;10.876;2022-11-18T05:55:38;18.40;;;13.00;;
2175;SDS011;1094;49.902;10.876;2022-11-18T05:58:05;21.90;;;14.23;;
2175;SDS011;1094;49.902;10.876;2022-11-18T06:00:31;19.43;;;13.77;;
2175;SDS011;1094;49.902;10.876;2022-11-18T06:02:57;28.30;;;14.03;;
2175;SDS011;1094;49.902;10.876;2022-11-18T06:05:24;19.07;;;13.73;;
2175;SDS011;1094;49.902;10.876;2022-11-18T06:07:50;20.30;;;13.40;;
2175;SDS011;1094;49.902;10.876;2022-11-18T06:10:19;22.60;;;15.00;;
2175;SDS011;1094;49.902;10.876;2022-11-18T06:12:46;19.00;;;13.57;;
2175;SDS011;1094;49.902;10.876;2022-11-18T06:15:18;18.50;;;13.80;;
2175;SDS011;1094;49.902;10.876;2022-11-18T06:17:47;21.10;;;14.00;;
2175;SDS011;1094;49.902;10.876;2022-11-18T06:20:16;25.53;;;14.70;;
2175;SDS011;1094;49.902;10.876;2022-11-18T06:22:43;23.17;;;14.70;;
2175;SDS011;1094;49.902;10.876;2022-11-18T06:25:09;21.47;;;14.80;;
2175;SDS011;1094;49.902;10.876;2022-11-18T06:27:35;22.87;;;14.80;;
2175;SDS011;1094;49.902;10.876;2022-11-18T06:30:01;24.13;;;16.03;;
2175;SDS011;1094;49.902;10.876;2022-11-18T06:32:26;21.67;;;15.23;;
2175;SDS011;1094;49.902;10.876;2022-11-18T06:34:52;19.07;;;13.50;;
2175;SDS011;1094;49.902;10.876;2022-11-18T06:37:18;19.97;;;15.10;;
2175;SDS011;1094;49.902;10.876;2022-11-18T06:39:45;25.60;;;16.33;;
2175;SDS011;1094;49.902;10.876;2022-11-18T06:42:11;22.83;;;15.53;;
2175;SDS011;1094;49.902;10.876;2022-11-18T06:44:56;20.60;;;14.83;;
2175;SDS011;1094;49.902;10.876;2022-11-18T06:47:22;21.20;;;16.20;;
2175;SDS011;1094;49.902;10.876;2022-11-18T06:49:48;21.23;;;16.17;;
2175;SDS011;1094;49.902;10.876;2022-11-18T06:52:14;31.20;;;16.20;;
2175;SDS011;1094;49.902;10.876;2022-11-18T06:54:40;24.93;;;15.80;;
2175;SDS011;1094;49.902;10.876;2022-11-18T06:57:06;21.43;;;14.37;;
2175;SDS011;1094;49.902;10.876;2022-11-18T06:59:32;20.40;;;15.20;;
2175;SDS011;1094;49.902;10.876;2022-11-18T07:01:58;15.37;;;12.00;;
2175;SDS011;1094;49.902;10.876;2022-11-18T07:04:24;15.43;;;11.70;;
2175;SDS011;1094;49.902;10.876;2022-11-18T07:06:50;17.73;;;11.90;;
2175;SDS011;1094;49.902;10.876;2022-11-18T07:09:16;16.23;;;12.00;;
2175;SDS011;1094;49.902;10.876;2022-11-18T07:11:42;15.03;;;11.33;;
2175;SDS011;1094;49.902;10.876;2022-11-18T07:14:08;12.70;;;10.40;;
2175;SDS011;1094;49.902;10.876;2022-11-18T07:16:34;14.17;;;11.03;;
2175;SDS011;1094;49.902;10.876;2022-11-18T07:19:00;15.87;;;11.10;;
2175;SDS011;1094;49.902;10.876;2022-11-18T07:21:27;15.60;;;11.53;;
2175;SDS011;1094;49.902;10.876;2022-11-18T07:23:54;17.97;;;10.40;;
2175;SDS011;1094;49.902;10.876;2022-11-18T07:26:20;12.63;;;10.37;;
2175;SDS011;1094;49.902;10.876;2022-11-18T07:28:47;13.13;;;9.40;;
2175;SDS011;1094;49.902;10.876;2022-11-18T07:31:13;13.53;;;8.47;;
2175;SDS011;1094;49.902;10.876;2022-11-18T07:33:40;11.60;;;9.07;;
2175;SDS011;1094;49.902;10.876;2022-11-18T07:36:10;14.97;;;9.70;;
2175;SDS011;1094;49.902;10.876;2022-11-18T07:38:36;13.70;;;8.90;;
2175;SDS011;1094;49.902;10.876;2022-11-18T07:41:09;12.53;;;9.57;;
2175;SDS011;1094;49.902;10.876;2022-11-18T07:43:36;13.30;;;8.93;;
2175;SDS011;1094;49.902;10.876;2022-11-18T07:46:09;11.10;;;8.30;;
2175;SDS011;1094;49.902;10.876;2022-11-18T07:48:35;13.53;;;9.50;;
2175;SDS011;1094;49.902;10.876;2022-11-18T07:51:01;12.53;;;9.93;;
2175;SDS011;1094;49.902;10.876;2022-11-18T07:53:31;12.70;;;10.07;;
2175;SDS011;1094;49.902;10.876;2022-11-18T07:55:57;14.00;;;9.53;;
2175;SDS011;1094;49.902;10.876;2022-11-18T07:58:23;13.77;;;9.57;;
2175;SDS011;1094;49.902;10.876;2022-11-18T08:00:49;12.80;;;8.43;;
2175;SDS011;1094;49.902;10.876;2022-11-18T08:03:15;14.37;;;9.63;;
2175;SDS011;1094;49.902;10.876;2022-11-18T08:05:41;11.20;;;9.70;;
2175;SDS011;1094;49.902;10.876;2022-11-18T08:08:07;15.00;;;9.60;;
2175;SDS011;1094;49.902;10.876;2022-11-18T08:10:32;13.30;;;9.23;;
2175;SDS011;1094;49.902;10.876;2022-11-18T08:12:58;11.80;;;10.03;;
2175;SDS011;1094;49.902;10.876;2022-11-18T08:15:24;16.27;;;10.00;;
2175;SDS011;1094;49.902;10.876;2022-11-18T08:17:50;16.97;;;10.37;;
2175;SDS011;1094;49.902;10.876;2022-11-18T08:20:16;13.07;;;10.27;;
2175;SDS011;1094;49.902;10.876;2022-11-18T08:22:42;14.90;;;10.30;;
2175;SDS011;1094;49.902;10.876;2022-11-18T08:25:08;18.27;;;10.70;;
2175;SDS011;1094;49.902;10.876;2022-11-18T08:27:34;15.13;;;11.50;;
2175;SDS011;1094;49.902;10.876;2022-11-18T08:30:00;16.17;;;10.43;;
2175;SDS011;1094;49.902;10.876;2022-11-18T08:32:26;16.17;;;11.80;;
2175;SDS011;1094;49.902;10.876;2022-11-18T08:34:52;21.00;;;12.67;;
2175;SDS011;1094;49.902;10.876;2022-11-18T08:37:18;18.47;;;12.77;;
2175;SDS011;1094;49.902;10.876;2022-11-18T08:39:44;18.23;;;11.30;;
2175;SDS011;1094;49.902;10.876;2022-11-18T08:42:10;21.53;;;12.47;;
2175;SDS011;1094;49.902;10.876;2022-11-18T08:44:36;17.87;;;11.67;;
2175;SDS011;1094;49.902;10.876;2022-11-18T08:47:02;19.70;;;11.77;;
2175;SDS011;1094;49.902;10.876;2022-11-18T08:49:28;14.07;;;10.90;;
2175;SDS011;1094;49.902;10.876;2022-11-18T08:51:54;19.20;;;10.67;;
2175;SDS011;1094;49.902;10.876;2022-11-18T08:54:20;19.10;;;11.00;;
2175;SDS011;1094;49.902;10.876;2022-11-18T08:56:45;14.80;;;9.90;;
2175;SDS011;1094;49.902;10.876;2022-11-18T08:59:14;12.90;;;9.07;;
2175;SDS011;1094;49.902;10.876;2022-11-18T09:01:40;13.80;;;10.07;;
2175;SDS011;1094;49.902;10.876;2022-11-18T09:04:07;12.73;;;9.30;;
2175;SDS011;1094;49.902;10.876;2022-11-18T09:06:33;13.70;;;9.33;;
2175;SDS011;1094;49.902;10.876;2022-11-18T09:08:59;13.23;;;9.17;;
2175;SDS011;1094;49.902;10.876;2022-11-18T09:11:25;10.60;;;8.80;;
2175;SDS011;1094;49.902;10.876;2022-11-18T09:13:55;9.43;;;7.93;;
2175;SDS011;1094;49.902;10.876;2022-11-18T09:16:22;8.67;;;7.70;;
2175;SDS011;1094;49.902;10.876;2022-11-18T09:18:49;9.10;;;7.23;;
2175;SDS011;1094;49.902;10.876;2022-11-18T09:21:16;11.40;;;8.23;;
2175;SDS011;1094;49.902;10.876;2022-11-18T09:23:42;11.27;;;8.30;;
2175;SDS011;1094;49.902;10.876;2022-11-18T09:26:09;8.20;;;6.57;;
2175;SDS011;1094;49.902;10.876;2022-11-18T09:28:35;11.37;;;6.83;;
2175;SDS011;1094;49.902;10.876;2022-11-18T09:31:02;7.80;;;7.00;;
2175;SDS011;1094;49.902;10.876;2022-11-18T09:33:29;7.90;;;6.73;;
2175;SDS011;1094;49.902;10.876;2022-11-18T09:35:55;8.10;;;6.93;;
2175;SDS011;1094;49.902;10.876;2022-11-18T09:38:20;8.90;;;7.20;;
2175;SDS011;1094;49.902;10.876;2022-11-18T09:40:55;10.03;;;6.97;;
2175;SDS011;1094;49.902;10.876;2022-11-18T09:43:47;9.30;;;6.80;;
2175;SDS011;1094;49.902;10.876;2022-11-18T09:46:16;7.30;;;6.10;;
2175;SDS011;1094;49.902;10.876;2022-11-18T09:48:45;12.03;;;7.27;;
2175;SDS011;1094;49.902;10.876;2022-11-18T09:51:31;7.73;;;6.30;;
2175;SDS011;1094;49.902;10.876;2022-11-18T09:54:02;10.20;;;7.60;;
2175;SDS011;1094;49.902;10.876;2022-11-18T09:56:28;11.00;;;8.53;;
2175;SDS011;1094;49.902;10.876;2022-11-18T09:58:54;8.23;;;6.30;;
2175;SDS011;1094;49.902;10.876;2022-11-18T10:01:20;5.97;;;5.37;;
2175;SDS011;1094;49.902;10.876;2022-11-18T10:03:48;5.50;;;4.67;;
2175;SDS011;1094;49.902;10.876;2022-11-18T10:06:22;6.73;;;4.20;;
2175;SDS011;1094;49.902;10.876;2022-11-18T10:11:44;5.23;;;4.73;;
2175;SDS011;1094;49.902;10.876;2022-11-18T10:14:16;3.60;;;3.30;;
2175;SDS011;1094;49.902;10.876;2022-11-18T10:26:43;3.87;;;2.60;;
2175;SDS011;1094;49.902;10.876;2022-11-18T10:29:09;3.00;;;2.50;;
2175;SDS011;1094;49.902;10.876;2022-11-18T10:31:38;2.43;;;2.23;;
2175;SDS011;1094;49.902;10.876;2022-11-18T10:34:05;2.60;;;2.30;;
2175;SDS011;1094;49.902;10.876;2022-11-18T10:36:35;2.73;;;2.30;;
2175;SDS011;1094;49.902;10.876;2022-11-18T10:39:09;4.03;;;3.03;;
2175;SDS011;1094;49.902;10.876;2022-11-18T10:41:48;2.60;;;2.20;;
2175;SDS011;1094;49.902;10.876;2022-11-18T10:44:31;2.60;;;2.33;;
2175;SDS011;1094;49.902;10.876;2022-11-18T10:47:20;2.90;;;2.60;;
2175;SDS011;1094;49.902;10.876;2022-11-18T10:49:48;4.97;;;2.73;;
2175;SDS011;1094;49.902;10.876;2022-11-18T10:52:14;5.90;;;4.30;;
2175;SDS011;1094;49.902;10.876;2022-11-18T10:54:40;6.20;;;3.33;;
2175;SDS011;1094;49.902;10.876;2022-11-18T10:59:55;3.60;;;2.67;;
2175;SDS011;1094;49.902;10.876;2022-11-18T11:02:37;3.43;;;3.13;;
2175;SDS011;1094;49.902;10.876;2022-11-18T11:05:15;5.90;;;3.63;;
2175;SDS011;1094;49.902;10.876;2022-11-18T11:07:42;7.80;;;5.00;;
2175;SDS011;1094;49.902;10.876;2022-11-18T11:12:41;9.23;;;6.50;;
2175;SDS011;1094;49.902;10.876;2022-11-18T11:15:12;9.00;;;7.60;;
2175;SDS011;1094;49.902;10.876;2022-11-18T11:17:45;8.50;;;7.23;;
2175;SDS011;1094;49.902;10.876;2022-11-18T11:20:32;8.50;;;7.10;;
2175;SDS011;1094;49.902;10.876;2022-11-18T11:22:59;8.63;;;7.10;;
2175;SDS011;1094;49.902;10.876;2022-11-18T11:28:30;8.03;;;6.43;;
2175;SDS011;1094;49.902;10.876;2022-11-18T11:31:05;9.93;;;7.30;;
2175;SDS011;1094;49.902;10.876;2022-11-18T11:33:38;9.07;;;7.37;;
2175;SDS011;1094;49.902;10.876;2022-11-18T11:41:42;9.00;;;7.27;;
2175;SDS011;1094;49.902;10.876;2022-11-18T11:46:57;10.83;;;6.63;;
2175;SDS011;1094;49.902;10.876;2022-11-18T11:49:54;7.87;;;5.63;;
2175;SDS011;1094;49.902;10.876;2022-11-18T11:57:43;7.63;;;6.43;;
2175;SDS011;1094;49.902;10.876;2022-11-18T12:00:12;7.70;;;6.27;;
2175;SDS011;1094;49.902;10.876;2022-11-18T12:02:52;6.40;;;5.27;;
2175;SDS011;1094;49.902;10.876;2022-11-18T12:05:23;8.37;;;6.10;;
2175;SDS011;1094;49.902;10.876;2022-11-18T12:07:58;7.10;;;6.20;;
2175;SDS011;1094;49.902;10.876;2022-11-18T12:10:29;10.17;;;5.90;;
2175;SDS011;1094;49.902;10.876;2022-11-18T12:18:25;9.90;;;6.30;;
2175;SDS011;1094;49.902;10.876;2022-11-18T12:20:54;7.03;;;6.30;;
2175;SDS011;1094;49.902;10.876;2022-11-18T12:23:21;8.37;;;6.60;;
2175;SDS011;1094;49.902;10.876;2022-11-18T12:28:36;7.33;;;6.53;;
2175;SDS011;1094;49.902;10.876;2022-11-18T12:33:41;6.93;;;5.67;;
2175;SDS011;1094;49.902;10.876;2022-11-18T12:36:08;6.83;;;5.60;;
2175;SDS011;1094;49.902;10.876;2022-11-18T12:38:34;7.97;;;6.63;;
2175;SDS011;1094;49.902;10.876;2022-11-18T12:41:01;6.43;;;5.83;;
2175;SDS011;1094;49.902;10.876;2022-11-18T12:48:51;7.17;;;5.43;;
2175;SDS011;1094;49.902;10.876;2022-11-18T12:58:35;7.20;;;6.50;;
2175;SDS011;1094;49.902;10.876;2022-11-18T13:01:06;8.20;;;5.47;;
2175;SDS011;1094;49.902;10.876;2022-11-18T13:03:32;9.80;;;5.90;;
2175;SDS011;1094;49.902;10.876;2022-11-18T13:05:59;8.37;;;6.97;;
2175;SDS011;1094;49.902;10.876;2022-11-18T13:08:26;10.80;;;6.83;;
2175;SDS011;1094;49.902;10.876;2022-11-18T13:10:54;8.60;;;7.40;;
2175;SDS011;1094;49.902;10.876;2022-11-18T13:13:40;8.40;;;6.83;;
2175;SDS011;1094;49.902;10.876;2022-11-18T13:16:16;8.33;;;5.80;;
2175;SDS011;1094;49.902;10.876;2022-11-18T13:19:01;6.87;;;6.10;;
2175;SDS011;1094;49.902;10.876;2022-11-18T13:21:28;10.33;;;6.63;;
2175;SDS011;1094;49.902;10.876;2022-11-18T13:24:13;8.17;;;6.27;;
2175;SDS011;1094;49.902;10.876;2022-11-18T13:26:41;6.57;;;5.90;;
2175;SDS011;1094;49.902;10.876;2022-11-18T13:29:20;14.10;;;6.40;;
2175;SDS011;1094;49.902;10.876;2022-11-18T13:34:44;8.87;;;6.33;;
2175;SDS011;1094;49.902;10.876;2022-11-18T13:37:13;6.30;;;4.70;;
2175;SDS011;1094;49.902;10.876;2022-11-18T13:39:41;9.13;;;6.00;;
2175;SDS011;1094;49.902;10.876;2022-11-18T13:42:18;6.17;;;4.40;;
2175;SDS011;1094;49.902;10.876;2022-11-18T13:44:50;5.07;;;4.03;;
2175;SDS011;1094;49.902;10.876;2022-11-18T13:52:21;3.33;;;3.03;;
2175;SDS011;1094;49.902;10.876;2022-11-18T13:54:49;6.17;;;4.00;;
2175;SDS011;1094;49.902;10.876;2022-11-18T13:57:16;5.10;;;3.33;;
2175;SDS011;1094;49.902;10.876;2022-11-18T13:59:43;3.57;;;3.10;;
2175;SDS011;1094;49.902;10.876;2022-11-18T14:02:11;3.47;;;2.97;;
2175;SDS011;1094;49.902;10.876;2022-11-18T14:04:38;5.37;;;3.13;;
2175;SDS011;1094;49.902;10.876;2022-11-18T14:07:28;3.93;;;3.23;;
2175;SDS011;1094;49.902;10.876;2022-11-18T14:09:57;4.30;;;3.37;;
2175;SDS011;1094;49.902;10.876;2022-11-18T14:12:25;4.73;;;3.70;;
2175;SDS011;1094;49.902;10.876;2022-11-18T14:14:53;4.67;;;2.90;;
2175;SDS011;1094;49.902;10.876;2022-11-18T14:17:36;3.37;;;3.07;;
2175;SDS011;1094;49.902;10.876;2022-11-18T14:20:06;3.50;;;3.20;;
2175;SDS011;1094;49.902;10.876;2022-11-18T14:22:34;4.33;;;3.40;;
2175;SDS011;1094;49.902;10.876;2022-11-18T14:25:17;3.30;;;2.40;;
2175;SDS011;1094;49.902;10.876;2022-11-18T14:27:48;2.20;;;1.90;;
2175;SDS011;1094;49.902;10.876;2022-11-18T14:35:31;2.40;;;1.77;;
2175;SDS011;1094;49.902;10.876;2022-11-18T14:37:57;2.53;;;2.20;;
2175;SDS011;1094;49.902;10.876;2022-11-18T14:40:23;2.20;;;1.77;;
2175;SDS011;1094;49.902;10.876;2022-11-18T14:42:49;3.60;;;2.40;;
2175;SDS011;1094;49.902;10.876;2022-11-18T14:45:15;1.67;;;1.57;;
2175;SDS011;1094;49.902;10.876;2022-11-18T14:47:41;2.77;;;1.73;;
2175;SDS011;1094;49.902;10.876;2022-11-18T14:50:11;3.63;;;2.23;;
2175;SDS011;1094;49.902;10.876;2022-11-18T14:52:37;2.00;;;1.90;;
2175;SDS011;1094;49.902;10.876;2022-11-18T14:55:03;3.10;;;1.97;;
2175;SDS011;1094;49.902;10.876;2022-11-18T14:57:29;3.10;;;2.80;;
2175;SDS011;1094;49.902;10.876;2022-11-18T14:59:55;5.60;;;2.43;;
2175;SDS011;1094;49.902;10.876;2022-11-18T15:02:21;2.20;;;2.00;;
2175;SDS011;1094;49.902;10.876;2022-11-18T15:04:47;2.83;;;2.50;;
2175;SDS011;1094;49.902;10.876;2022-11-18T15:07:15;5.67;;;2.80;;
2175;SDS011;1094;49.902;10.876;2022-11-18T15:09:41;5.50;;;2.67;;
2175;SDS011;1094;49.902;10.876;2022-11-18T15:12:07;2.70;;;2.27;;
2175;SDS011;1094;49.902;10.876;2022-11-18T15:14:33;4.60;;;2.97;;
2175;SDS011;1094;49.902;10.876;2022-11-18T15:17:00;3.30;;;2.87;;
2175;SDS011;1094;49.902;10.876;2022-11-18T15:19:26;3.10;;;2.90;;
2175;SDS011;1094;49.902;10.876;2022-11-18T15:21:53;2.83;;;2.60;;
2175;SDS011;1094;49.902;10.876;2022-11-18T15:24:19;4.60;;;3.00;;
2175;SDS011;1094;49.902;10.876;2022-11-18T15:26:45;4.03;;;3.40;;
2175;SDS011;1094;49.902;10.876;2022-11-18T15:29:15;4.87;;;4.37;;
2175;SDS011;1094;49.902;10.876;2022-11-18T15:31:42;5.43;;;3.67;;
2175;SDS011;1094;49.902;10.876;2022-11-18T15:34:08;4.90;;;3.90;;
2175;SDS011;1094;49.902;10.876;2022-11-18T15:36:34;7.43;;;5.67;;
2175;SDS011;1094;49.902;10.876;2022-11-18T15:39:00;9.43;;;7.90;;
2175;SDS011;1094;49.902;10.876;2022-11-18T15:41:26;12.37;;;8.93;;
2175;SDS011;1094;49.902;10.876;2022-11-18T15:43:53;13.00;;;8.37;;
2175;SDS011;1094;49.902;10.876;2022-11-18T15:46:20;9.20;;;7.80;;
2175;SDS011;1094;49.902;10.876;2022-11-18T15:48:46;7.90;;;7.10;;
2175;SDS011;1094;49.902;10.876;2022-11-18T15:51:13;5.97;;;5.37;;
2175;SDS011;1094;49.902;10.876;2022-11-18T15:53:39;7.00;;;4.27;;
2175;SDS011;1094;49.902;10.876;2022-11-18T15:58:43;5.63;;;4.43;;
2175;SDS011;1094;49.902;10.876;2022-11-18T16:01:10;12.47;;;3.63;;
2175;SDS011;1094;49.902;10.876;2022-11-18T16:03:36;6.07;;;4.07;;
2175;SDS011;1094;49.902;10.876;2022-11-18T16:06:02;3.83;;;3.30;;
2175;SDS011;1094;49.902;10.876;2022-11-18T16:08:29;7.93;;;3.60;;
2175;SDS011;1094;49.902;10.876;2022-11-18T16:10:55;4.37;;;3.97;;
2175;SDS011;1094;49.902;10.876;2022-11-18T16:13:40;6.40;;;5.07;;
2175;SDS011;1094;49.902;10.876;2022-11-18T16:16:06;5.77;;;5.17;;
2175;SDS011;1094;49.902;10.876;2022-11-18T16:18:33;7.27;;;6.00;;
2175;SDS011;1094;49.902;10.876;2022-11-18T16:20:59;8.20;;;6.63;;
2175;SDS011;1094;49.902;10.876;2022-11-18T16:23:25;9.90;;;6.20;;
2175;SDS011;1094;49.902;10.876;2022-11-18T16:25:52;7.73;;;6.43;;
2175;SDS011;1094;49.902;10.876;2022-11-18T16:28:18;6.97;;;6.17;;
2175;SDS011;1094;49.902;10.876;2022-11-18T16:30:48;9.37;;;6.90;;
2175;SDS011;1094;49.902;10.876;2022-11-18T16:33:32;6.63;;;6.00;;
2175;SDS011;1094;49.902;10.876;2022-11-18T16:35:58;7.80;;;6.70;;
2175;SDS011;1094;49.902;10.876;2022-11-18T16:38:24;7.53;;;6.70;;
2175;SDS011;1094;49.902;10.876;2022-11-18T16:40:56;9.17;;;6.60;;
2175;SDS011;1094;49.902;10.876;2022-11-18T16:43:22;9.33;;;7.10;;
2175;SDS011;1094;49.902;10.876;2022-11-18T16:45:51;8.20;;;6.53;;